createdAt,value
2017-09-02T00:02:12.365Z,98.90
2017-09-02T00:04:39.892Z,99.00
2017-09-02T00:07:07.429Z,99.00
2017-09-02T00:09:34.973Z,99.00
2017-09-02T00:12:02.477Z,99.00
2017-09-02T00:14:30.072Z,98.90
2017-09-02T00:16:57.773Z,98.80
2017-09-02T00:19:25.472Z,99.00
2017-09-02T00:21:53.017Z,99.10
2017-09-02T00:24:20.541Z,99.00
2017-09-02T00:26:48.089Z,99.20
2017-09-02T00:29:15.643Z,99.20
2017-09-02T00:31:43.193Z,99.30
2017-09-02T00:34:11.154Z,99.40
2017-09-02T00:36:38.674Z,99.40
2017-09-02T00:39:06.217Z,99.40
2017-09-02T00:41:33.709Z,99.80
2017-09-02T00:44:01.217Z,99.50
2017-09-02T00:46:28.710Z,99.70
2017-09-02T00:48:56.318Z,99.50
2017-09-02T00:51:23.937Z,99.30
2017-09-02T00:53:51.445Z,99.40
2017-09-02T00:56:18.933Z,99.40
2017-09-02T00:58:46.469Z,99.10
2017-09-02T01:01:14.009Z,99.10
2017-09-02T01:03:41.561Z,99.20
2017-09-02T01:06:09.069Z,99.10
2017-09-02T01:08:36.557Z,99.10
2017-09-02T01:11:04.084Z,99.20
2017-09-02T01:13:31.573Z,99.30
2017-09-02T01:15:59.181Z,99.10
2017-09-02T01:18:26.720Z,99.30
2017-09-02T01:20:54.241Z,99.30
2017-09-02T01:23:22.201Z,99.30
2017-09-02T01:25:49.757Z,99.20
2017-09-02T01:28:17.305Z,99.20
2017-09-02T01:30:44.863Z,99.30
2017-09-02T01:33:12.349Z,99.30
2017-09-02T01:35:39.945Z,99.20
2017-09-02T01:38:07.476Z,99.20
2017-09-02T01:40:35.022Z,99.10
2017-09-02T01:43:02.534Z,99.30
2017-09-02T01:45:30.039Z,99.50
2017-09-02T01:47:57.574Z,99.60
2017-09-02T01:50:25.098Z,99.50
2017-09-02T01:52:52.741Z,99.20
2017-09-02T01:55:20.233Z,99.30
2017-09-02T01:57:49.137Z,99.30
2017-09-02T02:00:16.681Z,99.50
2017-09-02T02:02:44.193Z,99.50
2017-09-02T02:05:11.745Z,99.60
2017-09-02T02:07:39.253Z,99.50
2017-09-02T02:10:06.761Z,99.30
2017-09-02T02:12:34.297Z,99.30
2017-09-02T02:15:01.847Z,99.50
2017-09-02T02:17:29.336Z,99.50
2017-09-02T02:19:56.925Z,99.60
2017-09-02T02:22:24.474Z,99.70
2017-09-02T02:24:52.007Z,99.60
2017-09-02T02:27:19.526Z,99.60
2017-09-02T02:29:47.101Z,99.40
2017-09-02T02:32:14.649Z,99.50
2017-09-02T02:34:42.153Z,99.30
2017-09-02T02:37:09.648Z,99.50
2017-09-02T02:39:37.185Z,99.50
2017-09-02T02:42:04.681Z,99.30
2017-09-02T02:44:32.269Z,99.10
2017-09-02T02:46:59.809Z,99.00
2017-09-02T02:49:27.358Z,99.80
2017-09-02T02:51:54.878Z,99.40
2017-09-02T02:54:22.449Z,99.50
2017-09-02T02:56:49.982Z,99.50
2017-09-02T02:59:17.477Z,99.60
2017-09-02T03:01:44.989Z,99.60
2017-09-02T03:04:12.498Z,99.40
2017-09-02T03:06:40.013Z,99.30
2017-09-02T03:09:07.502Z,99.50
2017-09-02T03:11:35.007Z,99.20
2017-09-02T03:14:02.546Z,99.30
2017-09-02T03:16:30.188Z,99.30
2017-09-02T03:18:57.681Z,99.20
2017-09-02T03:21:25.189Z,99.20
2017-09-02T03:23:52.690Z,99.10
2017-09-02T03:26:20.204Z,99.30
2017-09-02T03:28:47.719Z,99.60
2017-09-02T03:31:15.218Z,99.30
2017-09-02T03:33:42.730Z,99.50
2017-09-02T03:36:10.226Z,99.40
2017-09-02T03:38:37.789Z,99.40
2017-09-02T03:41:05.321Z,99.20
2017-09-02T03:43:32.838Z,99.00
2017-09-02T03:46:00.414Z,99.00
2017-09-02T03:48:27.921Z,99.10
2017-09-02T03:50:55.524Z,99.30
2017-09-02T03:53:23.042Z,99.30
2017-09-02T03:55:50.597Z,99.60
2017-09-02T03:58:18.152Z,99.30
2017-09-02T04:00:45.709Z,99.30
2017-09-02T04:03:13.226Z,99.10
2017-09-02T04:05:40.721Z,99.20
2017-09-02T04:08:08.251Z,99.40
2017-09-02T04:10:35.757Z,99.20
2017-09-02T04:13:03.325Z,99.10
2017-09-02T04:15:30.829Z,99.10
2017-09-02T04:17:58.321Z,99.40
2017-09-02T04:20:25.830Z,99.10
2017-09-02T04:22:53.361Z,99.00
2017-09-02T04:25:20.882Z,99.20
2017-09-02T04:27:48.387Z,98.90
2017-09-02T04:30:15.928Z,99.00
2017-09-02T04:32:43.422Z,99.00
2017-09-02T04:35:11.022Z,99.10
2017-09-02T04:37:38.670Z,99.10
2017-09-02T04:40:06.191Z,98.70
2017-09-02T04:42:33.754Z,99.00
2017-09-02T04:45:01.250Z,99.10
2017-09-02T04:47:28.762Z,98.80
2017-09-02T04:49:56.262Z,98.90
2017-09-02T04:52:23.826Z,99.00
2017-09-02T04:54:51.386Z,98.90
2017-09-02T04:57:18.910Z,98.80
2017-09-02T04:59:46.409Z,98.80
2017-09-02T05:02:13.933Z,98.80
2017-09-02T05:04:41.425Z,98.80
2017-09-02T05:07:08.962Z,98.80
2017-09-02T05:09:36.454Z,98.80
2017-09-02T05:12:03.998Z,98.70
2017-09-02T05:14:31.492Z,98.70
2017-09-02T05:16:59.093Z,98.80
2017-09-02T05:19:26.602Z,98.60
2017-09-02T05:21:54.276Z,98.80
2017-09-02T05:24:21.796Z,98.60
2017-09-02T05:26:49.297Z,98.80
2017-09-02T05:29:16.813Z,98.70
2017-09-02T05:31:44.310Z,98.60
2017-09-02T05:34:11.902Z,98.80
2017-09-02T05:36:39.414Z,98.70
2017-09-02T05:39:06.990Z,98.60
2017-09-02T05:41:34.485Z,98.60
2017-09-02T05:44:01.998Z,98.40
2017-09-02T05:46:29.489Z,98.40
2017-09-02T05:48:57.007Z,98.00
2017-09-02T05:51:24.503Z,97.80
2017-09-02T05:53:52.050Z,98.00
2017-09-02T05:56:19.593Z,97.80
2017-09-02T05:58:47.082Z,97.50
2017-09-02T06:01:14.601Z,97.60
2017-09-02T06:03:42.100Z,97.40
2017-09-02T06:06:09.689Z,97.20
2017-09-02T06:08:37.238Z,96.80
2017-09-02T06:11:04.753Z,96.60
2017-09-02T06:13:32.322Z,96.50
2017-09-02T06:15:59.861Z,96.50
2017-09-02T06:18:27.402Z,96.70
2017-09-02T06:20:54.908Z,96.90
2017-09-02T06:23:22.929Z,96.70
2017-09-02T06:25:50.494Z,96.90
2017-09-02T06:28:18.093Z,97.00
2017-09-02T06:30:45.590Z,97.00
2017-09-02T06:33:13.186Z,96.70
2017-09-02T06:35:40.678Z,96.50
2017-09-02T06:38:08.206Z,96.70
2017-09-02T06:40:35.718Z,96.50
2017-09-02T06:43:03.226Z,96.40
2017-09-02T06:45:30.806Z,96.60
2017-09-02T06:47:58.343Z,96.50
2017-09-02T06:50:25.833Z,96.30
2017-09-02T06:52:53.370Z,96.10
2017-09-02T06:55:20.885Z,96.40
2017-09-02T06:57:49.125Z,95.80
2017-09-02T07:00:16.747Z,96.00
2017-09-02T07:02:44.246Z,95.70
2017-09-02T07:05:11.829Z,95.90
2017-09-02T07:07:39.322Z,95.70
2017-09-02T07:10:06.829Z,95.70
2017-09-02T07:12:34.362Z,95.60
2017-09-02T07:15:01.902Z,95.80
2017-09-02T07:17:29.450Z,95.70
2017-09-02T07:19:56.977Z,95.70
2017-09-02T07:22:24.558Z,95.20
2017-09-02T07:24:52.121Z,95.20
2017-09-02T07:27:19.755Z,95.00
2017-09-02T07:29:47.294Z,94.40
2017-09-02T07:32:14.794Z,94.70
2017-09-02T07:34:42.363Z,93.80
2017-09-02T07:37:09.901Z,93.60
2017-09-02T07:39:37.461Z,93.20
2017-09-02T07:42:04.997Z,92.60
2017-09-02T07:44:32.529Z,91.70
2017-09-02T07:47:00.103Z,91.70
2017-09-02T07:49:27.625Z,91.30
2017-09-02T07:51:55.136Z,89.90
2017-09-02T07:54:22.723Z,85.60
2017-09-02T07:56:50.271Z,81.30
2017-09-02T07:59:17.765Z,76.00
2017-09-02T08:01:45.275Z,73.20
2017-09-02T08:04:12.761Z,75.00
2017-09-02T08:06:40.298Z,76.50
2017-09-02T08:09:07.805Z,76.00
2017-09-02T08:11:35.304Z,76.60
2017-09-02T08:14:02.814Z,74.00
2017-09-02T08:16:30.301Z,73.70
2017-09-02T08:18:57.829Z,71.30
2017-09-02T08:21:25.342Z,70.40
2017-09-02T08:23:52.869Z,70.60
2017-09-02T08:26:20.386Z,70.60
2017-09-02T08:28:47.913Z,68.00
2017-09-02T08:31:15.453Z,69.50
2017-09-02T08:33:42.965Z,68.40
2017-09-02T08:36:10.461Z,71.50
2017-09-02T08:38:38.085Z,70.60
2017-09-02T08:41:05.630Z,70.90
2017-09-02T08:43:33.170Z,69.20
2017-09-02T08:46:00.681Z,69.70
2017-09-02T08:48:28.173Z,67.10
2017-09-02T08:50:55.690Z,68.00
2017-09-02T08:53:23.201Z,69.10
2017-09-02T08:55:50.729Z,69.10
2017-09-02T08:58:18.258Z,70.00
2017-09-02T09:00:45.779Z,65.80
2017-09-02T09:03:13.318Z,64.90
2017-09-02T09:05:40.853Z,66.00
2017-09-02T09:08:08.410Z,67.50
2017-09-02T09:10:35.944Z,67.60
2017-09-02T09:13:03.450Z,67.50
2017-09-02T09:15:30.990Z,67.90
2017-09-02T09:17:58.591Z,62.80
2017-09-02T09:20:26.118Z,63.10
2017-09-02T09:22:54.025Z,64.10
2017-09-02T09:25:21.593Z,65.30
2017-09-02T09:27:49.126Z,66.40
2017-09-02T09:30:16.614Z,65.90
2017-09-02T09:32:44.117Z,63.00
2017-09-02T09:35:11.642Z,64.90
2017-09-02T09:37:39.234Z,64.30
2017-09-02T09:40:06.729Z,63.20
2017-09-02T09:42:34.235Z,61.60
2017-09-02T09:45:01.770Z,62.40
2017-09-02T09:47:29.303Z,61.70
2017-09-02T09:49:56.834Z,64.10
2017-09-02T09:52:24.465Z,61.20
2017-09-02T09:54:52.065Z,64.20
2017-09-02T09:57:19.576Z,64.90
2017-09-02T09:59:47.133Z,65.80
2017-09-02T10:02:14.629Z,65.00
2017-09-02T10:04:42.166Z,67.70
2017-09-02T10:07:09.665Z,67.80
2017-09-02T10:09:37.215Z,63.50
2017-09-02T10:12:04.758Z,63.80
2017-09-02T10:14:32.322Z,62.40
2017-09-02T10:16:59.814Z,60.10
2017-09-02T10:19:27.396Z,60.40
2017-09-02T10:21:55.144Z,61.70
2017-09-02T10:24:23.260Z,61.10
2017-09-02T10:26:51.286Z,60.00
2017-09-02T10:29:18.897Z,62.50
2017-09-02T10:31:46.401Z,61.10
2017-09-02T10:34:14.295Z,60.80
2017-09-02T10:36:41.848Z,61.30
2017-09-02T10:39:09.381Z,61.00
2017-09-02T10:41:36.926Z,59.70
2017-09-02T10:44:04.421Z,60.00
2017-09-02T10:46:31.938Z,59.80
2017-09-02T10:48:59.463Z,59.60
2017-09-02T10:51:26.982Z,63.40
2017-09-02T10:53:54.568Z,64.60
2017-09-02T10:56:22.077Z,63.60
2017-09-02T10:58:49.589Z,62.60
2017-09-02T11:01:17.173Z,66.50
2017-09-02T11:03:44.721Z,65.80
2017-09-02T11:06:12.266Z,63.80
2017-09-02T11:08:39.762Z,63.20
2017-09-02T11:11:07.340Z,64.60
2017-09-02T11:13:34.955Z,64.10
2017-09-02T11:16:03.364Z,65.90
2017-09-02T11:18:31.109Z,65.20
2017-09-02T11:20:58.992Z,63.90
2017-09-02T11:23:26.501Z,64.70
2017-09-02T11:25:54.095Z,65.10
2017-09-02T11:28:21.979Z,65.10
2017-09-02T11:30:49.531Z,64.60
2017-09-02T11:33:17.041Z,66.30
2017-09-02T11:35:44.534Z,66.50
2017-09-02T11:38:12.051Z,67.70
2017-09-02T11:40:40.258Z,68.00
2017-09-02T11:43:08.410Z,68.60
2017-09-02T11:45:36.197Z,68.80
2017-09-02T11:48:14.097Z,69.10
2017-09-02T11:50:41.594Z,69.90
2017-09-02T11:53:09.201Z,69.10
2017-09-02T11:55:36.757Z,67.10
2017-09-02T11:58:04.393Z,66.20
2017-09-02T12:00:31.890Z,65.40
2017-09-02T12:02:59.389Z,64.00
2017-09-02T12:05:27.269Z,62.90
2017-09-02T12:07:55.825Z,63.70
2017-09-02T12:10:23.455Z,65.10
2017-09-02T12:12:50.994Z,66.40
2017-09-02T12:15:18.507Z,65.30
2017-09-02T12:17:46.104Z,65.20
2017-09-02T12:20:13.657Z,64.20
2017-09-02T12:22:41.161Z,65.90
2017-09-02T12:25:08.708Z,65.50
2017-09-02T12:27:36.217Z,66.40
2017-09-02T12:30:03.714Z,65.30
2017-09-02T12:32:31.258Z,65.90
2017-09-02T12:34:58.813Z,66.70
2017-09-02T12:37:26.894Z,64.40
2017-09-02T12:39:57.786Z,63.40
2017-09-02T12:42:29.954Z,58.80
2017-09-02T12:44:57.924Z,57.00
2017-09-02T12:47:28.416Z,56.20
2017-09-02T12:49:56.509Z,55.00
2017-09-02T12:52:24.598Z,55.50
2017-09-02T12:54:52.153Z,57.90
2017-09-02T12:57:19.646Z,58.40
2017-09-02T12:59:47.156Z,60.20
2017-09-02T13:02:14.646Z,61.30
2017-09-02T13:04:42.161Z,60.50
2017-09-02T13:07:09.673Z,59.30
2017-09-02T13:09:37.223Z,59.50
2017-09-02T13:12:04.766Z,60.10
2017-09-02T13:14:32.270Z,61.30
2017-09-02T13:16:59.806Z,61.30
2017-09-02T13:19:27.338Z,63.10
2017-09-02T13:21:54.824Z,64.50
2017-09-02T13:24:22.393Z,65.30
2017-09-02T13:26:49.898Z,66.60
2017-09-02T13:29:17.414Z,67.30
2017-09-02T13:31:45.023Z,68.80
2017-09-02T13:34:12.567Z,67.20
2017-09-02T13:36:40.111Z,66.90
2017-09-02T13:39:07.611Z,66.80
2017-09-02T13:41:35.222Z,67.10
2017-09-02T13:44:02.713Z,68.10
2017-09-02T13:46:30.305Z,67.40
2017-09-02T13:48:57.804Z,67.00
2017-09-02T13:51:25.699Z,67.00
2017-09-02T13:53:53.328Z,67.60
2017-09-02T13:56:20.890Z,66.70
2017-09-02T13:58:48.433Z,67.40
2017-09-02T14:01:15.923Z,67.40
2017-09-02T14:03:43.454Z,66.70
2017-09-02T14:06:10.946Z,64.30
2017-09-02T14:08:38.473Z,64.10
2017-09-02T14:11:05.965Z,65.10
2017-09-02T14:13:33.495Z,65.50
2017-09-02T14:16:01.314Z,65.20
2017-09-02T14:18:28.806Z,64.00
2017-09-02T14:20:56.322Z,62.20
2017-09-02T14:23:23.921Z,63.10
2017-09-02T14:25:51.472Z,61.20
2017-09-02T14:28:18.968Z,60.50
2017-09-02T14:30:46.478Z,60.50
2017-09-02T14:33:13.994Z,60.40
2017-09-02T14:35:41.506Z,60.30
2017-09-02T14:38:09.094Z,61.10
2017-09-02T14:40:36.649Z,61.60
2017-09-02T14:43:04.178Z,62.40
2017-09-02T14:45:31.665Z,65.70
2017-09-02T14:47:59.261Z,71.20
2017-09-02T14:50:26.807Z,72.20
2017-09-02T14:52:54.350Z,75.90
2017-09-02T14:55:21.898Z,73.50
2017-09-02T14:57:49.438Z,75.80
2017-09-02T15:00:17.100Z,74.50
2017-09-02T15:02:44.617Z,75.20
2017-09-02T15:05:12.192Z,75.90
2017-09-02T15:07:39.735Z,81.10
2017-09-02T15:10:07.254Z,82.20
2017-09-02T15:12:34.813Z,79.80
2017-09-02T15:15:02.322Z,82.00
2017-09-02T15:17:29.809Z,78.40
2017-09-02T15:19:57.322Z,78.70
2017-09-02T15:22:24.901Z,79.30
2017-09-02T15:24:52.430Z,79.30
2017-09-02T15:27:19.973Z,78.70
2017-09-02T15:29:47.521Z,79.60
2017-09-02T15:32:15.010Z,78.80
2017-09-02T15:34:42.633Z,80.60
2017-09-02T15:37:10.155Z,80.10
2017-09-02T15:39:37.925Z,79.90
2017-09-02T15:42:05.454Z,79.70
2017-09-02T15:44:32.994Z,82.80
2017-09-02T15:47:00.562Z,80.20
2017-09-02T15:49:28.074Z,79.60
2017-09-02T15:51:55.594Z,79.50
2017-09-02T15:54:23.086Z,84.00
2017-09-02T15:56:50.628Z,83.40
2017-09-02T15:59:18.150Z,83.70
2017-09-02T16:01:45.697Z,84.90
2017-09-02T16:04:13.233Z,87.00
2017-09-02T16:06:40.742Z,87.40
2017-09-02T16:09:08.268Z,87.30
2017-09-02T16:11:35.773Z,87.40
2017-09-02T16:14:03.278Z,90.00
2017-09-02T16:16:30.862Z,84.30
2017-09-02T16:18:58.374Z,84.30
2017-09-02T16:21:25.945Z,83.80
2017-09-02T16:23:53.467Z,83.00
2017-09-02T16:26:21.033Z,83.00
2017-09-02T16:28:48.577Z,84.90
2017-09-02T16:31:16.073Z,83.70
2017-09-02T16:33:43.568Z,84.80
2017-09-02T16:36:11.145Z,88.80
2017-09-02T16:38:38.779Z,90.50
2017-09-02T16:41:06.289Z,90.90
2017-09-02T16:43:33.850Z,91.20
2017-09-02T16:46:01.367Z,91.10
2017-09-02T16:48:28.857Z,92.60
2017-09-02T16:50:56.407Z,93.20
2017-09-02T16:53:23.923Z,93.10
2017-09-02T16:55:51.441Z,93.00
2017-09-02T16:58:18.943Z,93.00
2017-09-02T17:00:46.429Z,92.30
2017-09-02T17:03:13.957Z,92.10
2017-09-02T17:05:41.546Z,92.30
2017-09-02T17:08:09.057Z,93.10
2017-09-02T17:10:36.554Z,93.60
2017-09-02T17:13:04.065Z,93.60
2017-09-02T17:15:31.553Z,93.50
2017-09-02T17:17:59.061Z,93.90
2017-09-02T17:20:26.550Z,93.50
2017-09-02T17:22:54.101Z,93.60
2017-09-02T17:25:21.607Z,93.80
2017-09-02T17:27:49.102Z,94.20
2017-09-02T17:30:16.627Z,93.20
2017-09-02T17:32:44.130Z,94.10
2017-09-02T17:35:11.694Z,94.50
2017-09-02T17:37:39.195Z,94.00
2017-09-02T17:40:06.706Z,93.70
2017-09-02T17:42:34.199Z,93.90
2017-09-02T17:45:01.705Z,93.80
2017-09-02T17:47:29.194Z,94.30
2017-09-02T17:49:56.710Z,94.00
2017-09-02T17:52:24.214Z,93.90
2017-09-02T17:54:51.779Z,94.60
2017-09-02T17:57:19.282Z,94.60
2017-09-02T17:59:46.772Z,94.00
2017-09-02T18:02:14.277Z,94.20
2017-09-02T18:04:41.770Z,95.10
2017-09-02T18:07:09.281Z,95.70
2017-09-02T18:09:36.781Z,95.50
2017-09-02T18:12:04.294Z,96.10
2017-09-02T18:14:31.785Z,96.00
2017-09-02T18:16:59.298Z,95.90
2017-09-02T18:19:26.798Z,95.80
2017-09-02T18:21:54.313Z,95.70
2017-09-02T18:24:21.822Z,96.60
2017-09-02T18:26:49.354Z,96.40
2017-09-02T18:29:16.842Z,96.70
2017-09-02T18:31:44.386Z,96.80
2017-09-02T18:34:11.897Z,97.20
2017-09-02T18:36:39.391Z,95.50
2017-09-02T18:39:06.905Z,97.50
2017-09-02T18:41:34.400Z,97.00
2017-09-02T18:44:02.024Z,97.20
2017-09-02T18:46:29.514Z,96.90
2017-09-02T18:48:57.033Z,97.40
2017-09-02T18:51:24.535Z,97.10
2017-09-02T18:53:52.075Z,97.40
2017-09-02T18:56:19.572Z,97.70
2017-09-02T18:58:47.105Z,97.70
2017-09-02T19:01:14.593Z,97.60
2017-09-02T19:03:42.113Z,97.50
2017-09-02T19:06:10.122Z,97.60
2017-09-02T19:08:37.618Z,97.70
2017-09-02T19:11:05.143Z,97.80
2017-09-02T19:13:32.666Z,97.50
2017-09-02T19:16:00.177Z,97.60
2017-09-02T19:18:27.668Z,97.50
2017-09-02T19:20:55.178Z,97.40
2017-09-02T19:23:23.383Z,97.60
2017-09-02T19:25:50.915Z,97.80
2017-09-02T19:28:18.510Z,97.90
2017-09-02T19:30:46.022Z,97.60
2017-09-02T19:33:13.533Z,97.40
2017-09-02T19:35:41.026Z,97.10
2017-09-02T19:38:08.558Z,96.90
2017-09-02T19:40:36.053Z,96.90
2017-09-02T19:43:03.565Z,97.40
2017-09-02T19:45:31.065Z,98.20
2017-09-02T19:47:58.650Z,97.80
2017-09-02T19:50:26.151Z,98.60
2017-09-02T19:52:53.755Z,98.40
2017-09-02T19:55:21.306Z,97.60
2017-09-02T19:57:48.838Z,98.60
2017-09-02T20:00:16.337Z,98.20
2017-09-02T20:02:43.917Z,97.80
2017-09-02T20:05:11.413Z,97.80
2017-09-02T20:07:38.917Z,98.10
2017-09-02T20:10:06.431Z,98.10
2017-09-02T20:12:33.935Z,97.90
2017-09-02T20:15:01.458Z,98.10
2017-09-02T20:17:28.953Z,98.60
2017-09-02T20:19:56.469Z,99.10
2017-09-02T20:22:23.982Z,99.20
2017-09-02T20:24:51.506Z,99.20
2017-09-02T20:27:19.049Z,98.80
2017-09-02T20:29:46.562Z,98.80
2017-09-02T20:32:14.142Z,98.70
2017-09-02T20:34:41.685Z,98.80
2017-09-02T20:37:09.186Z,98.50
2017-09-02T20:39:36.678Z,98.50
2017-09-02T20:42:04.193Z,98.30
2017-09-02T20:44:31.686Z,98.40
2017-09-02T20:46:59.202Z,98.50
2017-09-02T20:49:26.702Z,98.40
2017-09-02T20:51:54.226Z,98.50
2017-09-02T20:54:21.729Z,98.50
2017-09-02T20:56:49.249Z,99.20
2017-09-02T20:59:16.748Z,99.20
2017-09-02T21:01:44.273Z,98.90
2017-09-02T21:04:11.762Z,98.80
2017-09-02T21:06:39.258Z,99.10
2017-09-02T21:09:06.775Z,98.70
2017-09-02T21:11:34.269Z,98.60
2017-09-02T21:14:01.869Z,98.60
2017-09-02T21:16:29.422Z,98.80
2017-09-02T21:18:56.962Z,98.70
2017-09-02T21:21:24.475Z,99.10
2017-09-02T21:23:52.013Z,98.80
2017-09-02T21:26:19.593Z,98.70
2017-09-02T21:28:47.142Z,98.80
2017-09-02T21:31:14.688Z,99.10
2017-09-02T21:33:42.234Z,98.80
2017-09-02T21:36:09.746Z,99.20
2017-09-02T21:38:37.249Z,98.90
2017-09-02T21:41:04.759Z,98.50
2017-09-02T21:43:32.310Z,98.60
2017-09-02T21:45:59.822Z,99.00
2017-09-02T21:48:27.389Z,98.80
2017-09-02T21:50:54.950Z,99.10
2017-09-02T21:53:22.689Z,98.60
2017-09-02T21:55:50.214Z,98.60
2017-09-02T21:58:17.922Z,98.30
2017-09-02T22:00:45.517Z,98.50
2017-09-02T22:03:13.069Z,98.90
2017-09-02T22:05:41.464Z,98.70
2017-09-02T22:08:08.959Z,99.10
2017-09-02T22:10:36.457Z,98.90
2017-09-02T22:13:03.970Z,98.80
2017-09-02T22:15:31.469Z,98.90
2017-09-02T22:17:58.982Z,99.20
2017-09-02T22:20:26.486Z,99.40
2017-09-02T22:22:54.025Z,98.70
2017-09-02T22:25:21.547Z,98.60
2017-09-02T22:27:49.074Z,98.80
2017-09-02T22:30:16.573Z,99.00
2017-09-02T22:32:44.092Z,98.70
2017-09-02T22:35:11.662Z,98.70
2017-09-02T22:37:39.202Z,99.20
2017-09-02T22:40:06.745Z,99.90
2017-09-02T22:42:34.250Z,99.70
2017-09-02T22:45:01.772Z,98.90
2017-09-02T22:47:29.386Z,98.70
2017-09-02T22:49:56.898Z,98.80
2017-09-02T22:52:24.397Z,98.90
2017-09-02T22:54:51.917Z,98.80
2017-09-02T22:57:19.414Z,98.80
2017-09-02T22:59:46.951Z,98.60
2017-09-02T23:02:14.451Z,98.60
2017-09-02T23:04:41.985Z,99.10
2017-09-02T23:07:09.477Z,99.20
2017-09-02T23:09:36.986Z,99.20
2017-09-02T23:12:04.504Z,98.90
2017-09-02T23:14:32.005Z,98.60
2017-09-02T23:16:59.526Z,99.10
2017-09-02T23:19:27.095Z,98.60
2017-09-02T23:21:54.609Z,98.90
2017-09-02T23:24:22.114Z,98.80
2017-09-02T23:26:49.706Z,98.60
2017-09-02T23:29:17.219Z,99.00
2017-09-02T23:31:44.805Z,99.10
2017-09-02T23:34:12.302Z,98.80
2017-09-02T23:36:39.817Z,98.60
2017-09-02T23:39:07.309Z,98.90
2017-09-02T23:41:34.804Z,99.10
2017-09-02T23:44:02.414Z,99.20
2017-09-02T23:46:29.901Z,99.10
2017-09-02T23:48:57.418Z,98.60
2017-09-02T23:51:25.251Z,98.40
2017-09-02T23:53:52.761Z,98.30
2017-09-02T23:56:20.267Z,98.50
2017-09-02T23:58:47.802Z,99.20
